US-0164 weather

CLOSED Fisher's Landing Resort Airstrip
Arizona, United States

Public forecast

Using degrees Fahrenheit for public forecast. Weather courtesy of forecast.io.

Closest aviation weather report (METAR) to Fisher's Landing Resort Airstrip

Closest report is Yuma MCAS/Yuma International Airport, 20.5 nm (38.0 km) SSW. Retrieved 2020/04/06 23:57 UTC (46 minutes ago):

KNYL 062357Z AUTO 30006KT 10SM CLR 25/06 A2985 RMK AO2 SLP106 T02500056 10256 20200 56015

Closest aviation forecast (TAF) to Fisher's Landing Resort Airstrip

Forecast is more than 12 hours old.

Closest forecast is Yuma MCAS/Yuma International Airport, 20.5 nm (38.0 km) SSW. Retrieved 2014/04/27 15:15 UTC (6 years ago):

TAF TAF COR KNYL 271500Z 2715/2815 VRB06KT 9999 FEW250 QNH2989INS BECMG 2716/2718 26007KT QNH2978INS BECMG 2806/2808 VRB05KT QNH2981INS AUTOMATED SENSOR METWATCH 2715 TIL 2815 TX22/2723Z TN10/2813Z COR 1545